createdAt,value
2023-05-19T00:00:21.815Z,95524.19
2023-05-19T00:01:24.867Z,95516.81
2023-05-19T00:02:27.378Z,95515.69
2023-05-19T00:03:30.428Z,95517.53
2023-05-19T00:04:33.534Z,95513.53
2023-05-19T00:05:46.137Z,95506.63
2023-05-19T00:06:50.874Z,95508.72
2023-05-19T00:07:53.820Z,95503.44
2023-05-19T00:08:57.616Z,95494.47
2023-05-19T00:09:59.374Z,95504.47
2023-05-19T00:11:01.821Z,95498.63
2023-05-19T00:12:05.919Z,95498.88
2023-05-19T00:13:07.486Z,95504.38
2023-05-19T00:14:11.523Z,95504.06
2023-05-19T00:15:13.417Z,95505.34
2023-05-19T00:16:15.289Z,95499.72
2023-05-19T00:17:17.045Z,95501.81
2023-05-19T00:18:56.168Z,95506.31
2023-05-19T00:20:13.048Z,95501.88
2023-05-19T00:21:15.160Z,95505.00
2023-05-19T00:22:19.653Z,95500.19
2023-05-19T00:23:23.400Z,95507.31
2023-05-19T00:24:28.405Z,95508.34
2023-05-19T00:25:29.883Z,95498.59
2023-05-19T00:26:33.529Z,95503.88
2023-05-19T00:27:39.383Z,95509.16
2023-05-19T00:28:42.522Z,95499.38
2023-05-19T00:29:44.045Z,95496.53
2023-05-19T00:30:45.804Z,95499.38
2023-05-19T00:31:47.350Z,95501.00
2023-05-19T00:32:51.526Z,95495.69
2023-05-19T00:33:55.627Z,95498.59
2023-05-19T00:34:57.247Z,95502.50
2023-05-19T00:35:58.838Z,95497.09
2023-05-19T00:37:00.410Z,95496.53
2023-05-19T00:38:01.913Z,95495.16
2023-05-19T00:39:03.562Z,95493.56
2023-05-19T00:40:06.641Z,95493.56
2023-05-19T00:41:08.296Z,95492.75
2023-05-19T00:42:12.431Z,95492.50
2023-05-19T00:43:16.562Z,95492.41
2023-05-19T00:44:18.132Z,95502.41
2023-05-19T00:45:19.734Z,95491.28
2023-05-19T00:46:23.089Z,95493.38
2023-05-19T00:47:24.747Z,95491.78
2023-05-19T00:48:26.435Z,95491.78
2023-05-19T00:49:30.291Z,95493.38
2023-05-19T00:50:32.094Z,95489.69
2023-05-19T00:51:33.799Z,95493.38
2023-05-19T00:52:35.439Z,95490.97
2023-05-19T00:53:39.304Z,95484.31
2023-05-19T00:54:40.874Z,95493.84
2023-05-19T00:55:42.750Z,95487.22
2023-05-19T00:56:45.594Z,95487.78
2023-05-19T00:57:49.170Z,95488.81
2023-05-19T00:58:51.300Z,95482.72
2023-05-19T00:59:52.971Z,95491.09
2023-05-19T01:01:02.982Z,95486.53
2023-05-19T01:02:04.702Z,95488.16
2023-05-19T01:03:13.479Z,95485.16
2023-05-19T01:04:25.523Z,95480.94
2023-05-19T01:05:27.108Z,95481.41
2023-05-19T01:06:29.614Z,95482.09
2023-05-19T01:07:31.184Z,95484.97
2023-05-19T01:08:33.558Z,95476.50
2023-05-19T01:09:37.443Z,95476.41
2023-05-19T01:10:45.790Z,95472.16
2023-05-19T01:11:47.484Z,95481.09
2023-05-19T01:12:49.039Z,95476.75
2023-05-19T01:13:51.206Z,95477.56
2023-05-19T01:14:52.854Z,95471.72
2023-05-19T01:16:01.145Z,95470.56
2023-05-19T01:17:25.566Z,95471.81
2023-05-19T01:18:32.358Z,95468.41
2023-05-19T01:19:47.304Z,95469.09
2023-05-19T01:20:56.820Z,95464.53
2023-05-19T01:22:13.485Z,95466.25
2023-05-19T01:23:17.742Z,95473.25
2023-05-19T01:24:28.133Z,95471.31
2023-05-19T01:26:01.414Z,95462.47
2023-05-19T01:27:02.899Z,95466.97
2023-05-19T01:28:25.964Z,95473.03
2023-05-19T01:29:39.584Z,95466.41
2023-05-19T01:30:42.175Z,95463.19
2023-05-19T01:31:47.905Z,95471.09
2023-05-19T01:32:52.528Z,95464.22
2023-05-19T01:33:59.179Z,95460.19
2023-05-19T01:35:01.246Z,95466.28
2023-05-19T01:36:03.616Z,95463.06
2023-05-19T01:37:07.582Z,95460.91
2023-05-19T01:38:12.304Z,95461.13
2023-05-19T01:39:15.227Z,95458.72
2023-05-19T01:40:17.556Z,95459.75
2023-05-19T01:41:22.333Z,95458.16
2023-05-19T01:42:27.272Z,95454.09
2023-05-19T01:43:29.210Z,95461.22
2023-05-19T01:44:31.604Z,95455.84
2023-05-19T01:45:33.628Z,95459.38
2023-05-19T01:46:35.825Z,95458.59
2023-05-19T01:47:41.223Z,95465.91
2023-05-19T01:48:45.385Z,95459.97
2023-05-19T01:49:48.298Z,95458.34
2023-05-19T01:50:51.913Z,95458.34
2023-05-19T01:51:53.477Z,95459.59
2023-05-19T01:52:57.218Z,95455.94
2023-05-19T01:53:58.902Z,95459.59
2023-05-19T01:55:00.885Z,95461.66
2023-05-19T01:56:04.838Z,95456.06
2023-05-19T01:57:06.482Z,95462.13
2023-05-19T01:58:26.613Z,95460.53
2023-05-19T01:59:37.270Z,95455.25
2023-05-19T02:00:56.882Z,95462.13
2023-05-19T02:02:01.186Z,95463.97
2023-05-19T02:03:14.598Z,95454.91
2023-05-19T02:04:31.498Z,95465.91
2023-05-19T02:05:40.664Z,95455.38
2023-05-19T02:06:46.071Z,95459.25
2023-05-19T02:07:54.345Z,95447.94
2023-05-19T02:09:03.095Z,95463.50
2023-05-19T02:10:10.682Z,95456.25
2023-05-19T02:11:15.316Z,95456.38
2023-05-19T02:12:24.293Z,95459.47
2023-05-19T02:13:29.780Z,95452.59
2023-05-19T02:14:39.088Z,95460.50
2023-05-19T02:15:45.343Z,95455.91
2023-05-19T02:16:48.008Z,95459.09
2023-05-19T02:17:51.804Z,95456.47
2023-05-19T02:18:54.172Z,95450.41
2023-05-19T02:19:55.929Z,95456.47
2023-05-19T02:20:57.505Z,95455.91
2023-05-19T02:22:01.739Z,95451.91
2023-05-19T02:23:03.273Z,95456.16
2023-05-19T02:24:07.493Z,95455.13
2023-05-19T02:25:09.710Z,95460.97
2023-05-19T02:26:11.663Z,95461.75
2023-05-19T02:27:13.281Z,95463.34
2023-05-19T02:28:14.979Z,95457.28
2023-05-19T02:29:16.634Z,95456.47
2023-05-19T02:30:18.237Z,95459.34
2023-05-19T02:31:19.877Z,95460.13
2023-05-19T02:32:21.843Z,95459.34
2023-05-19T02:33:26.045Z,95454.88
2023-05-19T02:34:27.831Z,95455.69
2023-05-19T02:35:31.935Z,95464.38
2023-05-19T02:36:37.396Z,95457.28
2023-05-19T02:37:39.716Z,95460.97
2023-05-19T02:38:41.327Z,95458.06
2023-05-19T02:39:45.088Z,95452.03
2023-05-19T02:40:47.225Z,95459.94
2023-05-19T02:41:51.215Z,95457.28
2023-05-19T02:42:52.732Z,95464.16
2023-05-19T02:43:54.356Z,95455.69
2023-05-19T02:44:55.945Z,95459.34
2023-05-19T02:45:57.492Z,95454.53
2023-05-19T02:47:00.993Z,95455.31
2023-05-19T02:48:04.716Z,95459.00
2023-05-19T02:49:06.437Z,95454.16
2023-05-19T02:50:08.534Z,95460.72
2023-05-19T02:51:12.861Z,95460.13
2023-05-19T02:52:14.394Z,95460.34
2023-05-19T02:53:16.165Z,95461.94
2023-05-19T02:54:17.730Z,95458.28
2023-05-19T02:55:19.443Z,95455.44
2023-05-19T02:56:21.755Z,95457.25
2023-05-19T02:57:26.769Z,95458.53
2023-05-19T02:58:30.766Z,95459.56
2023-05-19T02:59:34.458Z,95453.94
2023-05-19T03:00:36.056Z,95455.16
2023-05-19T03:01:40.542Z,95456.19
2023-05-19T03:02:44.017Z,95451.97
2023-05-19T03:03:45.790Z,95454.13
2023-05-19T03:04:47.318Z,95453.09
2023-05-19T03:05:51.941Z,95453.72
2023-05-19T03:06:55.269Z,95453.72
2023-05-19T03:07:56.918Z,95452.69
2023-05-19T03:08:58.764Z,95447.63
2023-05-19T03:10:06.607Z,95454.75
2023-05-19T03:11:08.108Z,95443.19
2023-05-19T03:12:09.805Z,95456.34
2023-05-19T03:13:11.429Z,95457.59
2023-05-19T03:14:14.020Z,95456.78
2023-05-19T03:15:16.427Z,95454.00
2023-05-19T03:16:17.958Z,95458.25
2023-05-19T03:17:19.714Z,95448.28
2023-05-19T03:18:21.394Z,95451.97
2023-05-19T03:19:23.116Z,95443.03
2023-05-19T03:20:24.648Z,95447.63
2023-05-19T03:21:28.728Z,95451.28
2023-05-19T03:22:30.519Z,95445.81
2023-05-19T03:23:32.083Z,95444.78
2023-05-19T03:24:33.672Z,95444.53
2023-05-19T03:25:35.203Z,95450.38
2023-05-19T03:26:36.729Z,95452.22
2023-05-19T03:27:38.427Z,95453.47
2023-05-19T03:28:40.942Z,95445.81
2023-05-19T03:29:42.419Z,95444.53
2023-05-19T03:30:46.585Z,95451.09
2023-05-19T03:31:52.721Z,95448.09
2023-05-19T03:32:54.424Z,95450.47
2023-05-19T03:33:57.886Z,95447.84
2023-05-19T03:34:59.634Z,95450.25
2023-05-19T03:36:01.443Z,95447.41
2023-05-19T03:37:06.948Z,95443.97
2023-05-19T03:38:11.401Z,95450.06
2023-05-19T03:39:16.791Z,95455.06
2023-05-19T03:40:21.944Z,95450.63
2023-05-19T03:41:24.574Z,95449.81
2023-05-19T03:42:26.330Z,95455.66
2023-05-19T03:43:28.228Z,95451.09
2023-05-19T03:44:37.021Z,95449.78
2023-05-19T03:45:41.869Z,95449.78
2023-05-19T03:47:03.469Z,95452.41
2023-05-19T03:48:35.135Z,95458.13
2023-05-19T03:49:58.005Z,95452.84
2023-05-19T03:51:23.588Z,95454.25
2023-05-19T03:52:29.028Z,95458.13
2023-05-19T03:53:41.262Z,95457.53
2023-05-19T03:54:43.200Z,95448.03
2023-05-19T03:55:44.862Z,95457.53
2023-05-19T03:56:47.942Z,95460.75
2023-05-19T03:57:49.463Z,95460.53
2023-05-19T03:58:51.078Z,95462.69
2023-05-19T03:59:53.164Z,95459.59
2023-05-19T04:00:55.364Z,95460.63
2023-05-19T04:01:57.843Z,95462.47
2023-05-19T04:03:01.101Z,95461.44
2023-05-19T04:04:02.888Z,95457.09
2023-05-19T04:05:07.541Z,95460.75
2023-05-19T04:06:14.581Z,95453.88
2023-05-19T04:07:16.096Z,95455.69
2023-05-19T04:08:17.616Z,95464.41
2023-05-19T04:09:19.779Z,95457.53
2023-05-19T04:10:21.643Z,95459.59
2023-05-19T04:11:23.251Z,95461.41
2023-05-19T04:12:26.433Z,95454.53
2023-05-19T04:13:27.975Z,95461.84
2023-05-19T04:14:29.626Z,95470.31
2023-05-19T04:15:31.359Z,95469.28
2023-05-19T04:16:33.081Z,95460.38
2023-05-19T04:17:35.001Z,95464.59
2023-05-19T04:18:36.772Z,95463.59
2023-05-19T04:19:39.337Z,95456.25
2023-05-19T04:20:40.846Z,95469.22
2023-05-19T04:21:42.373Z,95459.47
2023-05-19T04:22:46.152Z,95460.50
2023-05-19T04:23:47.914Z,95467.38
2023-05-19T04:24:53.073Z,95468.19
2023-05-19T04:25:57.037Z,95464.53
2023-05-19T04:27:02.667Z,95471.97
2023-05-19T04:28:04.321Z,95467.50
2023-05-19T04:29:05.856Z,95467.50
2023-05-19T04:30:15.746Z,95473.34
2023-05-19T04:31:55.999Z,95466.03
2023-05-19T04:33:05.161Z,95453.09
2023-05-19T04:34:10.011Z,95465.44
2023-05-19T04:35:15.458Z,95473.91
2023-05-19T04:36:21.605Z,95471.88
2023-05-19T04:37:25.887Z,95464.53
2023-05-19T04:38:29.971Z,95470.63
2023-05-19T04:39:31.660Z,95474.28
2023-05-19T04:40:34.247Z,95470.38
2023-05-19T04:41:36.048Z,95475.22
2023-05-19T04:42:41.546Z,95473.59
2023-05-19T04:43:44.609Z,95469.72
2023-05-19T04:44:49.267Z,95472.16
2023-05-19T04:45:51.523Z,95475.56
2023-05-19T04:46:57.841Z,95470.66
2023-05-19T04:47:59.725Z,95479.16
2023-05-19T04:49:02.018Z,95469.63
2023-05-19T04:50:04.241Z,95478.91
2023-05-19T04:51:06.071Z,95474.00
2023-05-19T04:52:10.625Z,95473.31
2023-05-19T04:53:14.774Z,95476.63
2023-05-19T04:54:19.108Z,95476.56
2023-05-19T04:55:20.956Z,95472.44
2023-05-19T04:56:23.998Z,95483.91
2023-05-19T04:57:25.642Z,95477.38
2023-05-19T04:58:27.572Z,95477.47
2023-05-19T04:59:29.525Z,95479.19
2023-05-19T05:00:31.781Z,95475.66
2023-05-19T05:01:40.413Z,95480.81
2023-05-19T05:02:45.787Z,95476.22
2023-05-19T05:03:48.306Z,95472.94
2023-05-19T05:04:50.740Z,95477.63
2023-05-19T05:05:52.722Z,95483.25
2023-05-19T05:06:54.266Z,95481.50
2023-05-19T05:07:56.289Z,95485.06
2023-05-19T05:09:04.098Z,95487.81
2023-05-19T05:10:06.763Z,95477.38
2023-05-19T05:11:08.573Z,95480.56
2023-05-19T05:12:10.705Z,95473.56
2023-05-19T05:13:14.224Z,95480.91
2023-05-19T05:14:16.930Z,95477.81
2023-05-19T05:15:18.822Z,95477.91
2023-05-19T05:16:23.713Z,95471.91
2023-05-19T05:17:25.753Z,95477.63
2023-05-19T05:18:27.541Z,95466.13
2023-05-19T05:19:29.287Z,95474.13
2023-05-19T05:20:33.648Z,95477.91
2023-05-19T05:21:35.730Z,95478.47
2023-05-19T05:22:38.660Z,95477.69
2023-05-19T05:23:41.471Z,95471.38
2023-05-19T05:24:43.084Z,95476.16
2023-05-19T05:25:44.941Z,95479.13
2023-05-19T05:26:46.714Z,95473.84
2023-05-19T05:27:51.277Z,95479.47
2023-05-19T05:28:53.141Z,95473.72
2023-05-19T05:29:55.312Z,95469.31
2023-05-19T05:30:58.096Z,95472.06
2023-05-19T05:31:59.788Z,95472.19
2023-05-19T05:33:02.018Z,95473.63
2023-05-19T05:34:09.421Z,95468.81
2023-05-19T05:35:15.163Z,95468.31
2023-05-19T05:36:17.374Z,95472.91
2023-05-19T05:37:19.030Z,95471.38
2023-05-19T05:38:25.454Z,95468.75
2023-05-19T05:39:29.220Z,95474.34
2023-05-19T05:40:30.836Z,95466.75
2023-05-19T05:41:37.427Z,95470.75
2023-05-19T05:42:44.756Z,95469.00
2023-05-19T05:43:46.334Z,95469.56
2023-05-19T05:44:50.261Z,95468.50
2023-05-19T05:45:52.732Z,95469.16
2023-05-19T05:46:54.972Z,95468.34
2023-05-19T05:47:56.822Z,95473.72
2023-05-19T05:48:58.644Z,95469.22
2023-05-19T05:50:00.280Z,95468.19
2023-05-19T05:51:01.984Z,95470.81
2023-05-19T05:52:07.786Z,95463.22
2023-05-19T05:53:18.776Z,95462.56
2023-05-19T05:54:24.812Z,95462.56
2023-05-19T05:55:27.581Z,95467.28
2023-05-19T05:56:29.669Z,95466.91
2023-05-19T05:57:35.340Z,95467.19
2023-05-19T05:58:37.868Z,95465.44
2023-05-19T05:59:40.689Z,95468.56
2023-05-19T06:00:48.503Z,95465.44
2023-05-19T06:01:50.558Z,95473.75
2023-05-19T06:02:53.906Z,95466.38
2023-05-19T06:03:55.571Z,95470.53
2023-05-19T06:04:58.960Z,95471.09
2023-05-19T06:06:02.744Z,95467.97
2023-05-19T06:07:04.412Z,95462.19
2023-05-19T06:08:09.740Z,95459.25
2023-05-19T06:09:14.112Z,95468.28
2023-05-19T06:10:15.636Z,95456.72
2023-05-19T06:11:17.339Z,95462.75
2023-05-19T06:12:18.965Z,95464.44
2023-05-19T06:13:24.204Z,95467.31
2023-05-19T06:14:26.166Z,95473.41
2023-05-19T06:15:46.289Z,95463.38
2023-05-19T06:16:55.153Z,95469.47
2023-05-19T06:17:56.796Z,95463.63
2023-05-19T06:19:00.822Z,95468.69
2023-05-19T06:20:02.992Z,95474.06
2023-05-19T06:21:04.591Z,95466.34
2023-05-19T06:22:08.643Z,95471.16
2023-05-19T06:23:10.238Z,95473.88
2023-05-19T06:24:14.335Z,95474.69
2023-05-19T06:25:16.855Z,95468.09
2023-05-19T06:26:20.960Z,95468.59
2023-05-19T06:27:22.578Z,95471.00
2023-05-19T06:28:24.801Z,95474.50
2023-05-19T06:29:26.960Z,95467.16
2023-05-19T06:30:30.550Z,95462.91
2023-05-19T06:31:40.858Z,95473.22
2023-05-19T06:32:46.172Z,95471.44
2023-05-19T06:33:47.919Z,95460.28
2023-05-19T06:34:54.284Z,95472.78
2023-05-19T06:35:55.912Z,95465.16
2023-05-19T06:36:57.637Z,95468.03
2023-05-19T06:37:59.712Z,95465.16
2023-05-19T06:39:02.704Z,95465.94
2023-05-19T06:40:09.257Z,95467.31
2023-05-19T06:41:15.074Z,95469.13
2023-05-19T06:42:46.528Z,95462.34
2023-05-19T06:43:51.097Z,95473.28
2023-05-19T06:44:55.858Z,95467.22
2023-05-19T06:46:02.042Z,95465.38
2023-05-19T06:47:06.626Z,95472.28
2023-05-19T06:48:08.563Z,95467.53
2023-05-19T06:49:11.167Z,95472.81
2023-05-19T06:50:21.280Z,95474.66
2023-05-19T06:51:24.342Z,95464.38
2023-05-19T06:52:30.297Z,95473.88
2023-05-19T06:53:33.999Z,95469.13
2023-05-19T06:54:37.678Z,95468.81
2023-05-19T06:55:54.371Z,95464.34
2023-05-19T06:57:00.528Z,95470.78
2023-05-19T06:58:02.772Z,95465.81
2023-05-19T06:59:05.081Z,95460.50
2023-05-19T07:00:17.570Z,95469.59
2023-05-19T07:01:22.815Z,95474.09
2023-05-19T07:02:33.672Z,95464.31
2023-05-19T07:03:35.604Z,95470.38
2023-05-19T07:04:37.468Z,95462.88
2023-05-19T07:05:38.989Z,95469.19
2023-05-19T07:06:40.706Z,95462.97
2023-05-19T07:07:43.807Z,95462.47
2023-05-19T07:08:48.506Z,95464.91
2023-05-19T07:09:51.930Z,95470.56
2023-05-19T07:10:54.184Z,95465.13
2023-05-19T07:11:58.506Z,95465.00
2023-05-19T07:13:00.341Z,95460.78
2023-05-19T07:14:05.923Z,95458.94
2023-05-19T07:15:07.873Z,95466.72
2023-05-19T07:16:10.276Z,95467.19
2023-05-19T07:17:12.723Z,95465.41
2023-05-19T07:18:19.820Z,95463.97
2023-05-19T07:19:24.126Z,95459.06
2023-05-19T07:20:26.664Z,95464.97
2023-05-19T07:21:29.602Z,95463.44
2023-05-19T07:22:31.523Z,95464.03
2023-05-19T07:23:35.657Z,95461.16
2023-05-19T07:24:37.264Z,95458.81
2023-05-19T07:25:38.974Z,95466.75
2023-05-19T07:26:43.309Z,95458.41
2023-05-19T07:27:45.713Z,95460.06
2023-05-19T07:28:47.404Z,95464.88
2023-05-19T07:29:48.971Z,95463.28
2023-05-19T07:30:53.222Z,95455.84
2023-05-19T07:31:57.864Z,95460.13
2023-05-19T07:32:59.840Z,95462.81
2023-05-19T07:34:03.038Z,95457.91
2023-05-19T07:35:08.801Z,95454.53
2023-05-19T07:36:10.497Z,95461.44
2023-05-19T07:37:14.152Z,95459.56
2023-05-19T07:38:15.896Z,95456.94
2023-05-19T07:39:17.705Z,95453.38
2023-05-19T07:40:19.711Z,95457.44
2023-05-19T07:41:21.832Z,95451.66
2023-05-19T07:42:23.761Z,95453.22
2023-05-19T07:43:25.454Z,95454.00
2023-05-19T07:44:27.666Z,95449.97
2023-05-19T07:45:29.447Z,95456.41
2023-05-19T07:46:34.309Z,95451.09
2023-05-19T07:47:36.177Z,95449.78
2023-05-19T07:48:40.159Z,95457.44
2023-05-19T07:49:41.819Z,95446.59
2023-05-19T07:50:43.484Z,95450.78
2023-05-19T07:51:45.122Z,95452.72
2023-05-19T07:52:46.638Z,95451.56
2023-05-19T07:53:51.425Z,95453.75
2023-05-19T07:54:53.267Z,95450.06
2023-05-19T07:55:55.864Z,95442.66
2023-05-19T07:56:58.808Z,95447.66
2023-05-19T07:58:00.564Z,95443.09
2023-05-19T07:59:03.824Z,95446.06
2023-05-19T08:00:10.097Z,95444.78
2023-05-19T08:01:13.434Z,95442.69
2023-05-19T08:02:14.974Z,95450.06
2023-05-19T08:03:20.807Z,95443.78
2023-05-19T08:04:24.889Z,95444.88
2023-05-19T08:05:30.047Z,95444.34
2023-05-19T08:06:35.204Z,95432.16
2023-05-19T08:07:37.198Z,95440.94
2023-05-19T08:08:38.798Z,95447.03
2023-05-19T08:09:40.556Z,95439.59
2023-05-19T08:10:42.255Z,95442.72
2023-05-19T08:11:49.827Z,95439.56
2023-05-19T08:12:53.944Z,95432.44
2023-05-19T08:13:58.086Z,95432.97
2023-05-19T08:15:01.362Z,95428.19
2023-05-19T08:16:03.999Z,95433.63
2023-05-19T08:17:06.148Z,95421.72
2023-05-19T08:18:07.874Z,95421.78
2023-05-19T08:19:09.718Z,95417.00
2023-05-19T08:20:16.196Z,95424.69
2023-05-19T08:21:17.903Z,95414.63
2023-05-19T08:22:19.598Z,95419.91
2023-05-19T08:23:22.012Z,95414.38
2023-05-19T08:24:23.679Z,95422.59
2023-05-19T08:25:25.301Z,95423.09
2023-05-19T08:26:29.536Z,95417.81
2023-05-19T08:27:33.777Z,95417.56
2023-05-19T08:28:35.691Z,95413.56
2023-05-19T08:29:38.240Z,95415.59
2023-05-19T08:30:39.875Z,95416.63
2023-05-19T08:31:41.575Z,95410.66
2023-05-19T08:32:43.247Z,95408.75
2023-05-19T08:33:45.628Z,95408.53
2023-05-19T08:34:47.340Z,95405.59
2023-05-19T08:35:49.029Z,95406.16
2023-05-19T08:36:50.616Z,95404.81
2023-05-19T08:37:54.406Z,95408.56
2023-05-19T08:38:56.252Z,95406.69
2023-05-19T08:39:57.943Z,95404.56
2023-05-19T08:40:59.628Z,95403.44
2023-05-19T08:42:02.389Z,95400.31
2023-05-19T08:43:04.340Z,95400.91
2023-05-19T08:44:06.010Z,95409.13
2023-05-19T08:45:07.765Z,95405.13
2023-05-19T08:46:13.832Z,95409.66
2023-05-19T08:47:16.250Z,95405.19
2023-05-19T08:48:21.666Z,95400.41
2023-05-19T08:49:28.074Z,95399.06
2023-05-19T08:50:33.499Z,95398.81
2023-05-19T08:52:06.336Z,95405.19
2023-05-19T08:53:33.984Z,95399.91
2023-05-19T08:54:52.559Z,95405.19
2023-05-19T08:56:01.455Z,95410.00
2023-05-19T08:57:06.215Z,95395.94
2023-05-19T08:58:12.497Z,95393.00
2023-05-19T08:59:17.413Z,95397.25
2023-05-19T09:00:22.726Z,95395.13
2023-05-19T09:01:28.883Z,95396.78
2023-05-19T09:02:31.154Z,95398.09
2023-05-19T09:03:38.079Z,95398.63
2023-05-19T09:04:41.581Z,95395.72
2023-05-19T09:05:43.607Z,95398.88
2023-05-19T09:06:45.466Z,95395.44
2023-05-19T09:07:48.336Z,95393.03
2023-05-19T09:08:49.995Z,95397.81
2023-05-19T09:09:54.018Z,95397.81
2023-05-19T09:10:55.566Z,95393.56
2023-05-19T09:11:58.051Z,95396.50
2023-05-19T09:12:59.736Z,95398.63
2023-05-19T09:14:01.387Z,95397.81
2023-05-19T09:15:04.767Z,95394.06
2023-05-19T09:16:06.953Z,95400.44
2023-05-19T09:17:08.789Z,95398.50
2023-05-19T09:18:17.743Z,95402.25
2023-05-19T09:19:20.839Z,95397.97
2023-05-19T09:20:22.737Z,95399.78
2023-05-19T09:21:45.722Z,95398.16
2023-05-19T09:22:47.570Z,95395.47
2023-05-19T09:23:49.647Z,95400.25
2023-05-19T09:24:52.797Z,95396.00
2023-05-19T09:25:54.702Z,95401.00
2023-05-19T09:27:02.259Z,95407.34
2023-05-19T09:28:04.011Z,95396.94
2023-05-19T09:29:14.492Z,95395.88
2023-05-19T09:30:19.708Z,95396.16
2023-05-19T09:31:22.557Z,95395.06
2023-05-19T09:32:27.785Z,95394.72
2023-05-19T09:33:30.126Z,95395.72
2023-05-19T09:34:32.040Z,95395.09
2023-05-19T09:35:34.808Z,95386.00
2023-05-19T09:36:42.221Z,95389.91
2023-05-19T09:37:44.018Z,95394.50
2023-05-19T09:38:45.535Z,95397.22
2023-05-19T09:39:51.984Z,95393.19
2023-05-19T09:40:57.247Z,95395.25
2023-05-19T09:42:04.638Z,95393.44
2023-05-19T09:43:08.608Z,95397.31
2023-05-19T09:44:13.926Z,95397.34
2023-05-19T09:45:16.426Z,95392.78
2023-05-19T09:46:18.109Z,95393.28
2023-05-19T09:47:22.174Z,95392.78
2023-05-19T09:48:26.598Z,95390.06
2023-05-19T09:49:30.121Z,95380.88
2023-05-19T09:50:32.580Z,95390.16
2023-05-19T09:51:37.521Z,95386.16
2023-05-19T09:52:40.745Z,95383.19
2023-05-19T09:53:42.507Z,95384.34
2023-05-19T09:54:44.990Z,95383.38
2023-05-19T09:55:46.628Z,95378.56
2023-05-19T09:56:58.600Z,95384.91
2023-05-19T09:58:03.887Z,95386.03
2023-05-19T09:59:07.230Z,95390.63
2023-05-19T10:00:13.425Z,95386.13
2023-05-19T10:01:15.463Z,95386.72
2023-05-19T10:02:20.744Z,95389.16
2023-05-19T10:03:24.049Z,95381.38
2023-05-19T10:04:27.463Z,95378.72
2023-05-19T10:05:29.845Z,95385.41
2023-05-19T10:06:31.981Z,95386.75
2023-05-19T10:07:34.785Z,95386.19
2023-05-19T10:08:39.804Z,95394.25
2023-05-19T10:09:45.468Z,95383.59
2023-05-19T10:10:47.784Z,95382.53
2023-05-19T10:11:52.145Z,95381.47
2023-05-19T10:12:54.505Z,95391.69
2023-05-19T10:13:56.604Z,95383.16
2023-05-19T10:14:59.382Z,95385.28
2023-05-19T10:16:01.851Z,95385.50
2023-05-19T10:17:04.048Z,95386.88
2023-05-19T10:18:09.057Z,95388.22
2023-05-19T10:19:12.931Z,95386.66
2023-05-19T10:20:17.898Z,95384.53
2023-05-19T10:21:19.608Z,95380.75
2023-05-19T10:22:21.784Z,95381.41
2023-05-19T10:23:24.049Z,95385.28
2023-05-19T10:24:26.699Z,95378.03
2023-05-19T10:25:30.767Z,95382.28
2023-05-19T10:26:33.712Z,95375.59
2023-05-19T10:27:46.612Z,95381.47
2023-05-19T10:28:49.042Z,95381.13
2023-05-19T10:29:53.135Z,95386.47
2023-05-19T10:30:59.381Z,95382.97
2023-05-19T10:32:08.304Z,95386.41
2023-05-19T10:33:13.812Z,95399.44
2023-05-19T10:34:51.509Z,95395.53
2023-05-19T10:36:31.431Z,95396.38
2023-05-19T10:38:00.456Z,95385.72
2023-05-19T10:39:08.338Z,95387.47
2023-05-19T10:40:21.106Z,95388.25
2023-05-19T10:41:33.445Z,95389.31
2023-05-19T10:42:46.689Z,95394.59
2023-05-19T10:43:56.731Z,95391.66
2023-05-19T10:45:21.107Z,95385.16
2023-05-19T10:46:30.218Z,95387.44
2023-05-19T10:47:34.079Z,95384.44
2023-05-19T10:48:38.518Z,95384.34
2023-05-19T10:49:40.643Z,95383.50
2023-05-19T10:50:49.022Z,95388.56
2023-05-19T10:51:55.006Z,95393.44
2023-05-19T10:53:00.203Z,95384.91
2023-05-19T10:54:03.089Z,95389.13
2023-05-19T10:55:08.690Z,95387.53
2023-05-19T10:56:10.486Z,95386.03
2023-05-19T10:57:18.161Z,95388.72
2023-05-19T10:58:39.724Z,95386.53
2023-05-19T10:59:42.067Z,95394.78
2023-05-19T11:00:45.825Z,95385.44
2023-05-19T11:01:48.299Z,95386.03
2023-05-19T11:02:56.051Z,95393.03
2023-05-19T11:03:58.111Z,95388.78
2023-05-19T11:05:18.400Z,95396.59
2023-05-19T11:06:26.244Z,95393.63
2023-05-19T11:07:29.801Z,95384.00
2023-05-19T11:08:33.574Z,95391.22
2023-05-19T11:09:41.037Z,95388.53
2023-05-19T11:10:46.287Z,95389.31
2023-05-19T11:11:54.932Z,95393.47
2023-05-19T11:13:01.982Z,95389.94
2023-05-19T11:14:04.193Z,95389.69
2023-05-19T11:15:11.890Z,95397.66
2023-05-19T11:16:14.124Z,95389.88
2023-05-19T11:17:16.345Z,95388.56
2023-05-19T11:18:19.635Z,95394.16
2023-05-19T11:19:29.175Z,95389.69
2023-05-19T11:20:36.274Z,95385.44
2023-05-19T11:21:54.982Z,95391.53
2023-05-19T11:23:14.441Z,95382.44
2023-05-19T11:24:40.008Z,95392.91
2023-05-19T11:25:47.097Z,95383.78
2023-05-19T11:26:48.830Z,95389.59
2023-05-19T11:27:53.482Z,95389.09
2023-05-19T11:28:55.183Z,95384.31
2023-05-19T11:30:00.542Z,95382.03
2023-05-19T11:32:11.256Z,95378.56
2023-05-19T11:33:13.853Z,95381.72
2023-05-19T11:34:16.188Z,95378.38
2023-05-19T11:35:19.174Z,95374.44
2023-05-19T11:36:24.177Z,95383.47
2023-05-19T11:37:26.351Z,95371.19
2023-05-19T11:38:30.115Z,95379.03
2023-05-19T11:39:35.149Z,95377.50
2023-05-19T11:40:37.141Z,95379.38
2023-05-19T11:41:40.737Z,95374.47
2023-05-19T11:42:47.335Z,95374.69
2023-05-19T11:43:48.992Z,95376.66
2023-05-19T11:44:52.939Z,95381.84
2023-05-19T11:45:55.193Z,95377.75
2023-05-19T11:46:57.734Z,95371.94
2023-05-19T11:48:02.428Z,95369.91
2023-05-19T11:49:05.786Z,95380.84
2023-05-19T11:50:10.187Z,95378.44
2023-05-19T11:51:11.991Z,95375.63
2023-05-19T11:52:13.963Z,95375.50
2023-05-19T11:53:22.086Z,95371.19
2023-05-19T11:54:30.145Z,95372.22
2023-05-19T11:55:32.353Z,95368.91
2023-05-19T11:56:43.184Z,95362.22
2023-05-19T11:58:04.436Z,95361.22
2023-05-19T11:59:06.576Z,95368.59
2023-05-19T12:00:09.197Z,95369.78
2023-05-19T12:01:11.206Z,95363.00
2023-05-19T12:02:20.091Z,95367.66
2023-05-19T12:03:26.532Z,95366.72
2023-05-19T12:04:28.490Z,95370.78
2023-05-19T12:05:34.514Z,95366.28
2023-05-19T12:06:38.240Z,95362.41
2023-05-19T12:07:40.158Z,95362.91
2023-05-19T12:08:41.729Z,95360.94
2023-05-19T12:09:45.821Z,95357.84
2023-05-19T12:10:50.921Z,95365.91
2023-05-19T12:11:52.998Z,95367.00
2023-05-19T12:12:55.553Z,95367.75
2023-05-19T12:14:01.578Z,95370.97
2023-05-19T12:15:03.986Z,95360.94
2023-05-19T12:16:06.229Z,95363.13
2023-05-19T12:17:16.565Z,95366.22
2023-05-19T12:18:19.276Z,95362.47
2023-05-19T12:19:24.181Z,95365.97
2023-05-19T12:20:29.293Z,95362.78
2023-05-19T12:21:34.031Z,95368.97
2023-05-19T12:22:36.781Z,95365.81
2023-05-19T12:23:39.057Z,95368.00
2023-05-19T12:24:42.749Z,95361.13
2023-05-19T12:25:47.170Z,95364.09
2023-05-19T12:26:50.307Z,95361.50
2023-05-19T12:27:58.026Z,95364.94
2023-05-19T12:29:02.259Z,95361.19
2023-05-19T12:30:05.027Z,95360.47
2023-05-19T12:31:06.800Z,95365.19
2023-05-19T12:32:09.103Z,95371.44
2023-05-19T12:33:11.880Z,95361.56
2023-05-19T12:34:15.933Z,95353.34
2023-05-19T12:35:20.671Z,95366.19
2023-05-19T12:36:25.378Z,95359.44
2023-05-19T12:37:27.809Z,95355.94
2023-05-19T12:38:29.438Z,95356.59
2023-05-19T12:39:31.445Z,95360.31